1898 Hurricane NOT_NAMED (1898245N14281)


IBTrACS version v04r00. Visit IBTrACS website for data access.
Please direct all questions to the IBTrACS Q and A forum

Storm track - Intensity - Wind Radii - Intensity Data - Source Data - All data

Summary Information

Storm ID 1898245N14281
Start Sep 2 00Z
Landfall Sep 5 00Z, Sep 12 09Z
Max Intensity 75 kt (Sep 4 18Z)
End Sep 13 00Z
ATCF IDs
Track status Best track data.

Storm track plot

Map of storm track

Intensity plots

Map of storm track

Radial wind information

No radial wind information for this storm


Position and Intensity Table

BASIN ISO_TIME_________ NATURE LAT LON MLC WIND
degrees north degrees east kts
NA 1898-09-02 00:00:00 TS 13.50 -79.40 40
NA 03:00:00 TS 13.81 -79.71 42
NA 06:00:00 TS 14.10 -80.00 45
NA 09:00:00 TS 14.35 -80.25 50
NA 12:00:00 TS 14.60 -80.50 55
NA 15:00:00 TS 14.90 -80.80 57
NA 18:00:00 TS 15.20 -81.10 60
NA 21:00:00 TS 15.46 -81.34 62
NA 1898-09-03 00:00:00 TS 15.70 -81.60 65
NA 03:00:00 TS 15.92 -81.94 65
NA 06:00:00 TS 16.10 -82.30 65
NA 09:00:00 TS 16.26 -82.61 65
NA 12:00:00 TS 16.40 -82.90 65
NA 15:00:00 TS 16.55 -83.20 65
NA 18:00:00 TS 16.70 -83.50 65
NA 21:00:00 TS 16.86 -83.76 65
NA 1898-09-04 00:00:00 TS 17.00 -84.10 65
NA 03:00:00 TS 17.12 -84.66 65
NA 06:00:00 TS 17.20 -85.30 65
NA 09:00:00 TS 17.26 -85.85 65
NA 12:00:00 TS 17.30 -86.40 65
NA 15:00:00 TS 17.35 -87.00 70
NA 18:00:00 TS 17.40 -87.60 75
NA 21:00:00 TS 17.42 -88.19 70
NA 1898-09-05 00:00:00 TS 17.50 -88.70 65
NA 03:00:00 TS 17.72 -89.08 62
NA 06:00:00 TS 18.00 -89.40 60
NA 09:00:00 TS 18.25 -89.75 55
NA 12:00:00 TS 18.50 -90.10 50
NA 15:00:00 TS 18.75 -90.45 47
NA 18:00:00 TS 19.00 -90.80 45
NA 21:00:00 TS 19.23 -91.15 50
NA 1898-09-06 00:00:00 TS 19.50 -91.50 55
NA 03:00:00 TS 19.83 -91.86 60
NA 06:00:00 TS 20.20 -92.20 65
NA 09:00:00 TS 20.55 -92.50 65
NA 12:00:00 TS 20.90 -92.80 65
NA 15:00:00 TS 21.25 -93.15 65
NA 18:00:00 TS 21.60 -93.50 65
NA 21:00:00 TS 21.93 -93.83 65
NA 1898-09-07 00:00:00 TS 22.30 -94.10 65
NA 03:00:00 TS 22.78 -94.27 65
NA 06:00:00 TS 23.30 -94.40 65
NA 09:00:00 TS 23.76 -94.56 65
NA 12:00:00 TS 24.20 -94.70 65
NA 15:00:00 TS 24.65 -94.82 65
NA 18:00:00 TS 25.10 -94.90 65
NA 21:00:00 TS 25.59 -94.92 65
NA 1898-09-08 00:00:00 TS 26.00 -94.90 65
NA 03:00:00 TS 26.20 -94.91 65
NA 06:00:00 TS 26.30 -94.80 65
NA 09:00:00 TS 26.40 -94.47 62
NA 12:00:00 TS 26.50 -94.00 60
NA 15:00:00 TS 26.65 -93.47 60
NA 18:00:00 TS 26.80 -92.90 60
NA 21:00:00 TS 26.91 -92.31 57
NA 1898-09-09 00:00:00 TS 27.00 -91.80 55
NA 03:00:00 TS 27.11 -91.45 55
NA 06:00:00 TS 27.20 -91.20 55
NA 09:00:00 TS 27.26 -90.95 52
NA 12:00:00 TS 27.30 -90.70 50
NA 15:00:00 TS 27.35 -90.40 50
NA 18:00:00 TS 27.40 -90.10 50
NA 21:00:00 TS 27.44 -89.78 47
NA 1898-09-10 00:00:00 TS 27.50 -89.60 45
NA 03:00:00 TS 27.59 -89.69 45
NA 06:00:00 TS 27.70 -89.90 45
NA 09:00:00 TS 27.80 -90.05 45
NA 12:00:00 TS 27.90 -90.20 45
NA 15:00:00 TS 28.01 -90.35 45
NA 18:00:00 TS 28.10 -90.50 45
NA 21:00:00 TS 28.14 -90.65 45
NA 1898-09-11 00:00:00 TS 28.20 -90.80 45
NA 03:00:00 TS 28.34 -90.96 45
NA 06:00:00 TS 28.50 -91.10 45
NA 09:00:00 TS 28.65 -91.20 45
NA 12:00:00 TS 28.80 -91.30 45
NA 15:00:00 TS 28.96 -91.45 45
NA 18:00:00 TS 29.10 -91.60 45
NA 21:00:00 TS 29.20 -91.71 42
NA 1898-09-12 00:00:00 TS 29.30 -91.80 40
NA 03:00:00 TS 29.45 -91.90 40
NA 06:00:00 TS 29.60 -92.00 40
NA 09:00:00 TS 29.69 -92.10 37
NA 12:00:00 TS 29.80 -92.20 35
NA 15:00:00 TS 29.99 -92.31 32
NA 18:00:00 TS 30.20 -92.40 30
NA 21:00:00 TS 30.36 -92.46 30
NA 1898-09-13 00:00:00 TS 30.50 -92.50 30

Source Information

Agency Information
USA
TOKYO
CMA
HKO
NEWDELHI
REUNION
BOM
NADI
WELLINGTON
DS824
TD9636
TD9635
NEUMANN
MLC

All available IBTrACS Data

SEASON BASIN SUBBASIN ISO_TIME_________ NATURE LAT LON DIST2LAND LANDFALL IFLAG USA SSHS MLC LAT MLC LON MLC CLASS MLC WIND STORM SPEED STORM DIR
Year degrees north degrees east km km 1 degrees north degrees east kts kts degrees
1898 NA CS 1898-09-02 00:00:00 TS 13.50 -79.40 420 381 _____________O -1 13.50 -79.40 TS 40 9 316
1898 NA CS 03:00:00 TS 13.81 -79.71 381 345 _____________P -1 13.81 -79.71 TS 42 8 316
1898 NA CS 06:00:00 TS 14.10 -80.00 345 321 _____________O -1 14.10 -80.00 TS 45 8 316
1898 NA CS 09:00:00 TS 14.35 -80.25 311 283 _____________P -1 14.35 -80.25 TS 50 7 316
1898 NA CS 12:00:00 TS 14.60 -80.50 283 247 _____________O -1 14.60 -80.50 TS 55 8 316
1898 NA CS 15:00:00 TS 14.90 -80.80 247 215 _____________P -1 14.90 -80.80 TS 57 8 316
1898 NA CS 18:00:00 TS 15.20 -81.10 215 198 _____________O -1 15.20 -81.10 TS 60 8 317
1898 NA CS 21:00:00 TS 15.46 -81.34 201 178 _____________P -1 15.46 -81.34 TS 62 7 316
1898 NA CS 1898-09-03 00:00:00 TS 15.70 -81.60 178 163 _____________O -1 15.70 -81.60 HU 65 7 308
1898 NA CS 03:00:00 TS 15.92 -81.94 163 147 _____________P -1 15.92 -81.94 HU 65 8 301
1898 NA CS 06:00:00 TS 16.10 -82.30 147 132 _____________O -1 16.10 -82.30 HU 65 7 298
1898 NA CS 09:00:00 TS 16.26 -82.61 140 129 _____________P -1 16.26 -82.61 HU 65 7 298
1898 NA CS 12:00:00 TS 16.40 -82.90 134 130 _____________O -1 16.40 -82.90 HU 65 6 297
1898 NA CS 15:00:00 TS 16.55 -83.20 132 128 _____________P -1 16.55 -83.20 HU 65 7 298
1898 NA CS 18:00:00 TS 16.70 -83.50 132 125 _____________O -1 16.70 -83.50 HU 65 6 300
1898 NA CS 21:00:00 TS 16.86 -83.76 134 130 _____________P -1 16.86 -83.76 HU 65 6 298
1898 NA CS 1898-09-04 00:00:00 TS 17.00 -84.10 135 130 _____________O -1 17.00 -84.10 HU 65 9 287
1898 NA CS 03:00:00 TS 17.12 -84.66 134 134 _____________P -1 17.12 -84.66 HU 65 12 280
1898 NA CS 06:00:00 TS 17.20 -85.30 145 145 _____________O -1 17.20 -85.30 HU 65 11 277
1898 NA CS 09:00:00 TS 17.26 -85.85 156 156 _____________P -1 17.26 -85.85 HU 65 11 275
1898 NA CS 12:00:00 TS 17.30 -86.40 165 129 _____________O -1 17.30 -86.40 HU 65 11 275
1898 NA CS 15:00:00 TS 17.35 -87.00 129 64 _____________P -1 17.35 -87.00 HU 70 12 275
1898 NA CS 18:00:00 TS 17.40 -87.60 64 10 _____________O -1 17.40 -87.60 HU 75 11 274
1898 NA CS 21:00:00 TS 17.42 -88.19 10 0 _____________P -1 17.42 -88.19 HU 70 11 275
1898 NA NA 1898-09-05 00:00:00 TS 17.50 -88.70 0 0 _____________O -1 17.50 -88.70 HU 65 9 289
1898 NA NA 03:00:00 TS 17.72 -89.08 0 0 _____________P -1 17.72 -89.08 HU 62 8 307
1898 NA NA 06:00:00 TS 18.00 -89.40 0 0 _____________O -1 18.00 -89.40 TS 60 8 310
1898 NA NA 09:00:00 TS 18.25 -89.75 0 0 _____________P -1 18.25 -89.75 TS 55 8 307
1898 NA NA 12:00:00 TS 18.50 -90.10 0 0 _____________O -1 18.50 -90.10 TS 50 8 307
1898 NA NA 15:00:00 TS 18.75 -90.45 0 0 _____________P -1 18.75 -90.45 TS 47 8 307
1898 NA NA 18:00:00 TS 19.00 -90.80 0 0 _____________O -1 19.00 -90.80 TS 45 8 306
1898 NA GM 21:00:00 TS 19.23 -91.15 15 15 _____________P -1 19.23 -91.15 TS 50 8 307
1898 NA GM 1898-09-06 00:00:00 TS 19.50 -91.50 59 59 _____________O -1 19.50 -91.50 TS 55 9 312
1898 NA GM 03:00:00 TS 19.83 -91.86 109 109 _____________P -1 19.83 -91.86 TS 60 10 317
1898 NA GM 06:00:00 TS 20.20 -92.20 162 162 _____________O -1 20.20 -92.20 HU 65 9 320
1898 NA GM 09:00:00 TS 20.55 -92.50 207 207 _____________P -1 20.55 -92.50 HU 65 9 321
1898 NA GM 12:00:00 TS 20.90 -92.80 243 243 _____________O -1 20.90 -92.80 HU 65 9 319
1898 NA GM 15:00:00 TS 21.25 -93.15 294 294 _____________P -1 21.25 -93.15 HU 65 10 317
1898 NA GM 18:00:00 TS 21.60 -93.50 333 333 _____________O -1 21.60 -93.50 HU 65 9 317
1898 NA GM 21:00:00 TS 21.93 -93.83 350 336 _____________P -1 21.93 -93.83 HU 65 9 322
1898 NA GM 1898-09-07 00:00:00 TS 22.30 -94.10 339 331 _____________O -1 22.30 -94.10 HU 65 10 334
1898 NA GM 03:00:00 TS 22.78 -94.27 336 336 _____________P -1 22.78 -94.27 HU 65 10 344
1898 NA GM 06:00:00 TS 23.30 -94.40 347 335 _____________O -1 23.30 -94.40 HU 65 10 345
1898 NA GM 09:00:00 TS 23.76 -94.56 322 294 _____________P -1 23.76 -94.56 HU 65 9 343
1898 NA GM 12:00:00 TS 24.20 -94.70 294 266 _____________O -1 24.20 -94.70 HU 65 9 345
1898 NA GM 15:00:00 TS 24.65 -94.82 261 237 _____________P -1 24.65 -94.82 HU 65 9 349
1898 NA GM 18:00:00 TS 25.10 -94.90 237 224 _____________O -1 25.10 -94.90 HU 65 10 355
1898 NA GM 21:00:00 TS 25.59 -94.92 224 219 _____________P -1 25.59 -94.92 HU 65 9 0
1898 NA GM 1898-09-08 00:00:00 TS 26.00 -94.90 219 219 _____________O -1 26.00 -94.90 HU 65 6 2
1898 NA GM 03:00:00 TS 26.20 -94.91 220 220 _____________P -1 26.20 -94.91 HU 65 3 16
1898 NA GM 06:00:00 TS 26.30 -94.80 231 231 _____________O -1 26.30 -94.80 HU 65 4 63
1898 NA GM 09:00:00 TS 26.40 -94.47 262 262 _____________P -1 26.40 -94.47 HU 62 7 74
1898 NA GM 12:00:00 TS 26.50 -94.00 301 301 _____________O -1 26.50 -94.00 TS 60 9 74
1898 NA GM 15:00:00 TS 26.65 -93.47 306 306 _____________P -1 26.65 -93.47 TS 60 10 73
1898 NA GM 18:00:00 TS 26.80 -92.90 307 281 _____________O -1 26.80 -92.90 TS 60 11 76
1898 NA GM 21:00:00 TS 26.91 -92.31 281 250 _____________P -1 26.91 -92.31 TS 57 10 78
1898 NA GM 1898-09-09 00:00:00 TS 27.00 -91.80 250 230 _____________O -1 27.00 -91.80 TS 55 8 75
1898 NA GM 03:00:00 TS 27.11 -91.45 230 214 _____________P -1 27.11 -91.45 TS 55 6 69
1898 NA GM 06:00:00 TS 27.20 -91.20 214 201 _____________O -1 27.20 -91.20 TS 55 5 71
1898 NA GM 09:00:00 TS 27.26 -90.95 200 200 _____________P -1 27.26 -90.95 TS 52 5 77
1898 NA GM 12:00:00 TS 27.30 -90.70 201 200 _____________O -1 27.30 -90.70 TS 50 5 79
1898 NA GM 15:00:00 TS 27.35 -90.40 190 189 _____________P -1 27.35 -90.40 TS 50 5 79
1898 NA GM 18:00:00 TS 27.40 -90.10 189 189 _____________O -1 27.40 -90.10 TS 50 6 80
1898 NA GM 21:00:00 TS 27.44 -89.78 191 174 _____________P -1 27.44 -89.78 TS 47 5 77
1898 NA GM 1898-09-10 00:00:00 TS 27.50 -89.60 174 163 _____________O -1 27.50 -89.60 TS 45 2 27
1898 NA GM 03:00:00 TS 27.59 -89.69 166 157 _____________P -1 27.59 -89.69 TS 45 3 307
1898 NA GM 06:00:00 TS 27.70 -89.90 157 145 _____________O -1 27.70 -89.90 TS 45 4 303
1898 NA GM 09:00:00 TS 27.80 -90.05 145 133 _____________P -1 27.80 -90.05 TS 45 3 307
1898 NA GM 12:00:00 TS 27.90 -90.20 133 123 _____________O -1 27.90 -90.20 TS 45 3 308
1898 NA GM 15:00:00 TS 28.01 -90.35 123 112 _____________P -1 28.01 -90.35 TS 45 3 307
1898 NA GM 18:00:00 TS 28.10 -90.50 112 111 _____________O -1 28.10 -90.50 TS 45 3 297
1898 NA GM 21:00:00 TS 28.14 -90.65 112 100 _____________P -1 28.14 -90.65 TS 45 3 291
1898 NA GM 1898-09-11 00:00:00 TS 28.20 -90.80 100 89 _____________O -1 28.20 -90.80 TS 45 3 305
1898 NA GM 03:00:00 TS 28.34 -90.96 89 69 _____________P -1 28.34 -90.96 TS 45 4 319
1898 NA GM 06:00:00 TS 28.50 -91.10 69 59 _____________O -1 28.50 -91.10 TS 45 4 326
1898 NA GM 09:00:00 TS 28.65 -91.20 62 48 _____________P -1 28.65 -91.20 TS 45 3 330
1898 NA GM 12:00:00 TS 28.80 -91.30 48 38 _____________O -1 28.80 -91.30 TS 45 4 325
1898 NA GM 15:00:00 TS 28.96 -91.45 36 36 _____________P -1 28.96 -91.45 TS 45 4 319
1898 NA GM 18:00:00 TS 29.10 -91.60 44 34 _____________O -1 29.10 -91.60 TS 45 3 317
1898 NA GM 21:00:00 TS 29.20 -91.71 34 29 _____________P -1 29.20 -91.71 TS 42 3 319
1898 NA GM 1898-09-12 00:00:00 TS 29.30 -91.80 29 22 _____________O -1 29.30 -91.80 TS 40 3 326
1898 NA GM 03:00:00 TS 29.45 -91.90 29 9 _____________P -1 29.45 -91.90 TS 40 3 330
1898 NA GM 06:00:00 TS 29.60 -92.00 9 0 _____________O -1 29.60 -92.00 TS 40 3 324
1898 NA GM 09:00:00 TS 29.69 -92.10 0 0 _____________P -1 29.69 -92.10 TS 37 3 319
1898 NA NA 12:00:00 TS 29.80 -92.20 0 0 _____________O -1 29.80 -92.20 TS 35 4 329
1898 NA NA 15:00:00 TS 29.99 -92.31 0 0 _____________P -1 29.99 -92.31 TS 32 4 337
1898 NA NA 18:00:00 TS 30.20 -92.40 0 0 _____________O -1 30.20 -92.40 TD 30 4 340
1898 NA NA 21:00:00 TS 30.36 -92.46 0 0 _____________P -1 30.36 -92.46 TD 30 3 344
1898 NA NA 1898-09-13 00:00:00 TS 30.50 -92.50 0 _____________O -1 30.50 -92.50 TD 30 3 341